sensor_id;sensor_type;location;lat;lon;timestamp;pressure;altitude;pressure_sealevel;temperature;humidity
4972;BME280;2501;51.214;6.768;2024-03-23T00:55:02;100757.09;;;6.32;100.00
4972;BME280;2501;51.214;6.768;2024-03-23T00:57:27;100746.47;;;6.24;100.00
4972;BME280;2501;51.214;6.768;2024-03-23T00:59:53;100751.72;;;6.26;100.00
4972;BME280;2501;51.214;6.768;2024-03-23T01:02:22;100745.44;;;6.16;100.00
4972;BME280;2501;51.214;6.768;2024-03-23T01:04:47;100752.16;;;6.08;100.00
4972;BME280;2501;51.214;6.768;2024-03-23T01:07:13;100758.28;;;6.10;100.00
4972;BME280;2501;51.214;6.768;2024-03-23T01:09:39;100747.75;;;6.04;100.00
4972;BME280;2501;51.214;6.768;2024-03-23T01:12:05;100758.66;;;6.25;100.00
4972;BME280;2501;51.214;6.768;2024-03-23T01:14:31;100747.84;;;6.09;100.00
4972;BME280;2501;51.214;6.768;2024-03-23T01:16:57;100738.25;;;6.08;100.00
4972;BME280;2501;51.214;6.768;2024-03-23T01:19:25;100762.53;;;6.07;100.00
4972;BME280;2501;51.214;6.768;2024-03-23T01:21:51;100744.09;;;6.34;100.00
4972;BME280;2501;51.214;6.768;2024-03-23T01:24:17;100733.69;;;6.34;100.00
4972;BME280;2501;51.214;6.768;2024-03-23T01:26:43;100750.00;;;6.26;100.00
4972;BME280;2501;51.214;6.768;2024-03-23T01:29:08;100742.22;;;6.28;100.00
4972;BME280;2501;51.214;6.768;2024-03-23T01:31:34;100742.50;;;5.68;100.00
4972;BME280;2501;51.214;6.768;2024-03-23T01:34:00;100751.19;;;5.69;100.00
4972;BME280;2501;51.214;6.768;2024-03-23T01:36:28;100744.47;;;5.78;100.00
4972;BME280;2501;51.214;6.768;2024-03-23T01:38:54;100747.31;;;5.54;100.00
4972;BME280;2501;51.214;6.768;2024-03-23T01:41:20;100745.41;;;5.47;100.00
4972;BME280;2501;51.214;6.768;2024-03-23T01:43:46;100741.88;;;5.45;100.00
4972;BME280;2501;51.214;6.768;2024-03-23T01:46:12;100747.78;;;5.40;100.00
4972;BME280;2501;51.214;6.768;2024-03-23T01:48:37;100741.34;;;5.25;100.00
4972;BME280;2501;51.214;6.768;2024-03-23T01:51:04;100747.88;;;5.43;100.00
4972;BME280;2501;51.214;6.768;2024-03-23T01:53:33;100753.56;;;5.28;100.00
4972;BME280;2501;51.214;6.768;2024-03-23T01:55:59;100746.38;;;5.18;100.00
4972;BME280;2501;51.214;6.768;2024-03-23T01:58:25;100740.34;;;5.20;100.00
4972;BME280;2501;51.214;6.768;2024-03-23T02:00:51;100738.88;;;5.30;100.00
4972;BME280;2501;51.214;6.768;2024-03-23T02:03:23;100736.97;;;5.24;100.00
4972;BME280;2501;51.214;6.768;2024-03-23T02:05:49;100731.50;;;5.14;100.00
4972;BME280;2501;51.214;6.768;2024-03-23T02:08:16;100724.69;;;5.17;100.00
4972;BME280;2501;51.214;6.768;2024-03-23T02:10:45;100720.06;;;5.40;100.00
4972;BME280;2501;51.214;6.768;2024-03-23T02:13:11;100714.81;;;5.39;100.00
4972;BME280;2501;51.214;6.768;2024-03-23T02:15:38;100701.59;;;5.30;100.00
4972;BME280;2501;51.214;6.768;2024-03-23T02:18:05;100710.59;;;5.42;100.00
4972;BME280;2501;51.214;6.768;2024-03-23T02:20:30;100704.63;;;5.46;100.00
4972;BME280;2501;51.214;6.768;2024-03-23T02:22:59;100703.88;;;5.50;100.00
4972;BME280;2501;51.214;6.768;2024-03-23T02:25:25;100702.06;;;5.48;100.00
4972;BME280;2501;51.214;6.768;2024-03-23T02:27:50;100699.06;;;5.66;100.00
4972;BME280;2501;51.214;6.768;2024-03-23T02:30:16;100696.34;;;5.28;100.00
4972;BME280;2501;51.214;6.768;2024-03-23T02:32:42;100702.63;;;5.69;100.00
4972;BME280;2501;51.214;6.768;2024-03-23T02:35:08;100701.81;;;5.73;100.00
4972;BME280;2501;51.214;6.768;2024-03-23T02:37:34;100701.66;;;5.66;100.00
4972;BME280;2501;51.214;6.768;2024-03-23T02:40:02;100703.28;;;5.62;100.00
4972;BME280;2501;51.214;6.768;2024-03-23T02:42:28;100703.53;;;5.38;100.00
4972;BME280;2501;51.214;6.768;2024-03-23T02:44:54;100710.28;;;5.30;100.00
4972;BME280;2501;51.214;6.768;2024-03-23T02:47:20;100715.59;;;5.68;100.00
4972;BME280;2501;51.214;6.768;2024-03-23T02:49:46;100705.34;;;5.75;100.00
4972;BME280;2501;51.214;6.768;2024-03-23T02:52:11;100713.31;;;5.47;100.00
4972;BME280;2501;51.214;6.768;2024-03-23T02:54:37;100713.44;;;5.20;100.00
4972;BME280;2501;51.214;6.768;2024-03-23T02:57:06;100711.50;;;5.11;100.00
4972;BME280;2501;51.214;6.768;2024-03-23T02:59:31;100709.06;;;5.17;100.00
4972;BME280;2501;51.214;6.768;2024-03-23T03:01:57;100713.53;;;5.23;100.00
4972;BME280;2501;51.214;6.768;2024-03-23T03:04:23;100713.66;;;5.28;100.00
4972;BME280;2501;51.214;6.768;2024-03-23T03:06:49;100711.72;;;5.19;100.00
4972;BME280;2501;51.214;6.768;2024-03-23T03:09:15;100711.94;;;5.61;100.00
4972;BME280;2501;51.214;6.768;2024-03-23T03:11:41;100703.75;;;6.16;100.00
4972;BME280;2501;51.214;6.768;2024-03-23T03:14:09;100700.88;;;6.04;100.00
4972;BME280;2501;51.214;6.768;2024-03-23T03:16:35;100687.91;;;6.06;100.00
4972;BME280;2501;51.214;6.768;2024-03-23T03:19:01;100672.50;;;6.16;100.00
4972;BME280;2501;51.214;6.768;2024-03-23T03:21:26;100660.63;;;5.90;100.00
4972;BME280;2501;51.214;6.768;2024-03-23T03:23:52;100669.56;;;6.01;100.00
4972;BME280;2501;51.214;6.768;2024-03-23T03:26:18;100672.28;;;6.07;100.00
4972;BME280;2501;51.214;6.768;2024-03-23T03:28:44;100685.34;;;6.09;100.00
4972;BME280;2501;51.214;6.768;2024-03-23T03:31:13;100673.09;;;6.03;100.00
4972;BME280;2501;51.214;6.768;2024-03-23T03:33:38;100678.31;;;6.03;100.00
4972;BME280;2501;51.214;6.768;2024-03-23T03:36:05;100685.13;;;5.98;100.00
4972;BME280;2501;51.214;6.768;2024-03-23T03:38:30;100676.53;;;6.02;100.00
4972;BME280;2501;51.214;6.768;2024-03-23T03:40:56;100676.78;;;6.13;100.00
4972;BME280;2501;51.214;6.768;2024-03-23T03:43:22;100691.41;;;5.73;100.00
4972;BME280;2501;51.214;6.768;2024-03-23T03:45:51;100692.16;;;5.68;100.00
4972;BME280;2501;51.214;6.768;2024-03-23T03:48:20;100688.47;;;5.59;100.00
4972;BME280;2501;51.214;6.768;2024-03-23T03:50:46;100678.56;;;6.15;100.00
4972;BME280;2501;51.214;6.768;2024-03-23T03:53:12;100678.50;;;6.12;100.00
4972;BME280;2501;51.214;6.768;2024-03-23T03:55:37;100677.50;;;6.07;100.00
4972;BME280;2501;51.214;6.768;2024-03-23T03:58:04;100682.72;;;5.71;100.00
4972;BME280;2501;51.214;6.768;2024-03-23T04:00:30;100688.06;;;5.77;100.00
4972;BME280;2501;51.214;6.768;2024-03-23T04:02:56;100694.94;;;5.75;100.00
4972;BME280;2501;51.214;6.768;2024-03-23T04:05:24;100695.31;;;5.56;100.00
4972;BME280;2501;51.214;6.768;2024-03-23T04:07:50;100696.88;;;5.48;100.00
4972;BME280;2501;51.214;6.768;2024-03-23T04:10:16;100692.69;;;5.54;100.00
4972;BME280;2501;51.214;6.768;2024-03-23T04:12:43;100699.97;;;5.68;100.00
4972;BME280;2501;51.214;6.768;2024-03-23T04:15:09;100692.38;;;5.77;100.00
4972;BME280;2501;51.214;6.768;2024-03-23T04:17:35;100685.34;;;6.09;100.00
4972;BME280;2501;51.214;6.768;2024-03-23T04:20:01;100688.94;;;5.78;100.00
4972;BME280;2501;51.214;6.768;2024-03-23T04:22:30;100689.41;;;5.62;100.00
4972;BME280;2501;51.214;6.768;2024-03-23T04:24:57;100684.81;;;6.23;100.00
4972;BME280;2501;51.214;6.768;2024-03-23T04:27:23;100687.03;;;6.07;100.00
4972;BME280;2501;51.214;6.768;2024-03-23T04:29:49;100676.44;;;6.37;100.00
4972;BME280;2501;51.214;6.768;2024-03-23T04:32:15;100680.53;;;6.25;100.00
4972;BME280;2501;51.214;6.768;2024-03-23T04:34:41;100675.03;;;6.13;100.00
4972;BME280;2501;51.214;6.768;2024-03-23T04:37:08;100669.69;;;6.06;100.00
4972;BME280;2501;51.214;6.768;2024-03-23T04:39:37;100670.53;;;6.06;100.00
4972;BME280;2501;51.214;6.768;2024-03-23T04:42:04;100684.56;;;5.77;100.00
4972;BME280;2501;51.214;6.768;2024-03-23T04:44:30;100680.44;;;5.85;100.00
4972;BME280;2501;51.214;6.768;2024-03-23T04:46:56;100675.53;;;5.97;100.00
4972;BME280;2501;51.214;6.768;2024-03-23T04:49:22;100678.69;;;6.20;100.00
4972;BME280;2501;51.214;6.768;2024-03-23T04:51:48;100682.97;;;5.82;100.00
4972;BME280;2501;51.214;6.768;2024-03-23T04:54:13;100680.56;;;6.27;100.00
4972;BME280;2501;51.214;6.768;2024-03-23T04:56:42;100675.75;;;6.06;100.00
4972;BME280;2501;51.214;6.768;2024-03-23T04:59:08;100667.91;;;6.44;100.00
4972;BME280;2501;51.214;6.768;2024-03-23T05:01:34;100671.41;;;6.05;100.00
4972;BME280;2501;51.214;6.768;2024-03-23T05:04:00;100674.56;;;5.92;100.00
4972;BME280;2501;51.214;6.768;2024-03-23T05:06:25;100669.91;;;6.16;100.00
4972;BME280;2501;51.214;6.768;2024-03-23T05:08:51;100673.63;;;6.27;100.00
4972;BME280;2501;51.214;6.768;2024-03-23T05:11:17;100676.38;;;5.96;100.00
4972;BME280;2501;51.214;6.768;2024-03-23T05:13:46;100680.22;;;6.12;100.00
4972;BME280;2501;51.214;6.768;2024-03-23T05:16:12;100675.59;;;5.99;100.00
4972;BME280;2501;51.214;6.768;2024-03-23T05:18:38;100690.56;;;6.09;100.00
4972;BME280;2501;51.214;6.768;2024-03-23T05:21:04;100699.59;;;5.87;100.00
4972;BME280;2501;51.214;6.768;2024-03-23T05:23:30;100700.84;;;5.68;100.00
4972;BME280;2501;51.214;6.768;2024-03-23T05:25:55;100692.81;;;5.93;100.00
4972;BME280;2501;51.214;6.768;2024-03-23T05:28:21;100694.00;;;5.73;100.00
4972;BME280;2501;51.214;6.768;2024-03-23T05:30:53;100697.13;;;5.58;100.00
4972;BME280;2501;51.214;6.768;2024-03-23T05:33:19;100695.00;;;6.13;100.00
4972;BME280;2501;51.214;6.768;2024-03-23T05:35:45;100694.81;;;5.69;100.00
4972;BME280;2501;51.214;6.768;2024-03-23T05:38:11;100693.72;;;5.96;100.00
4972;BME280;2501;51.214;6.768;2024-03-23T05:40:37;100692.28;;;6.08;100.00
4972;BME280;2501;51.214;6.768;2024-03-23T05:43:03;100694.13;;;5.78;100.00
4972;BME280;2501;51.214;6.768;2024-03-23T05:45:29;100684.44;;;6.05;100.00
4972;BME280;2501;51.214;6.768;2024-03-23T05:47:58;100685.84;;;5.92;100.00
4972;BME280;2501;51.214;6.768;2024-03-23T05:50:23;100677.19;;;5.93;100.00
4972;BME280;2501;51.214;6.768;2024-03-23T05:52:49;100683.16;;;5.89;100.00
4972;BME280;2501;51.214;6.768;2024-03-23T05:55:15;100695.19;;;5.84;100.00
4972;BME280;2501;51.214;6.768;2024-03-23T05:57:41;100700.81;;;5.67;100.00
4972;BME280;2501;51.214;6.768;2024-03-23T06:00:08;100693.22;;;5.76;100.00
4972;BME280;2501;51.214;6.768;2024-03-23T06:02:34;100696.88;;;6.18;100.00
4972;BME280;2501;51.214;6.768;2024-03-23T06:05:03;100704.25;;;5.66;100.00
4972;BME280;2501;51.214;6.768;2024-03-23T06:07:29;100709.91;;;5.84;100.00
4972;BME280;2501;51.214;6.768;2024-03-23T06:09:56;100711.22;;;5.67;100.00
4972;BME280;2501;51.214;6.768;2024-03-23T06:12:22;100717.34;;;5.69;100.00
4972;BME280;2501;51.214;6.768;2024-03-23T06:14:47;100717.28;;;6.00;100.00
4972;BME280;2501;51.214;6.768;2024-03-23T06:17:14;100721.03;;;6.13;100.00
4972;BME280;2501;51.214;6.768;2024-03-23T06:19:39;100713.19;;;6.11;100.00
4972;BME280;2501;51.214;6.768;2024-03-23T06:22:08;100716.84;;;5.83;100.00
4972;BME280;2501;51.214;6.768;2024-03-23T06:24:34;100715.31;;;5.91;100.00
4972;BME280;2501;51.214;6.768;2024-03-23T06:27:00;100716.44;;;5.67;100.00
4972;BME280;2501;51.214;6.768;2024-03-23T06:29:26;100715.34;;;5.58;100.00
4972;BME280;2501;51.214;6.768;2024-03-23T06:31:54;100707.75;;;5.66;100.00
4972;BME280;2501;51.214;6.768;2024-03-23T06:34:20;100709.53;;;5.69;100.00
4972;BME280;2501;51.214;6.768;2024-03-23T06:36:47;100717.97;;;5.60;100.00
4972;BME280;2501;51.214;6.768;2024-03-23T06:39:15;100709.28;;;5.92;100.00
4972;BME280;2501;51.214;6.768;2024-03-23T06:41:41;100707.28;;;5.82;100.00
4972;BME280;2501;51.214;6.768;2024-03-23T06:44:07;100716.38;;;5.65;100.00
4972;BME280;2501;51.214;6.768;2024-03-23T06:46:33;100706.03;;;5.67;100.00
4972;BME280;2501;51.214;6.768;2024-03-23T06:48:59;100720.00;;;5.72;100.00
4972;BME280;2501;51.214;6.768;2024-03-23T06:51:25;100718.81;;;5.92;100.00
4972;BME280;2501;51.214;6.768;2024-03-23T06:53:51;100720.97;;;5.75;100.00
4972;BME280;2501;51.214;6.768;2024-03-23T06:56:19;100727.63;;;5.97;100.00
4972;BME280;2501;51.214;6.768;2024-03-23T06:58:45;100735.59;;;5.70;100.00
4972;BME280;2501;51.214;6.768;2024-03-23T07:01:11;100733.78;;;6.38;100.00
4972;BME280;2501;51.214;6.768;2024-03-23T07:03:37;100723.69;;;6.14;100.00
4972;BME280;2501;51.214;6.768;2024-03-23T07:06:03;100733.38;;;6.20;100.00
4972;BME280;2501;51.214;6.768;2024-03-23T07:08:29;100738.47;;;5.81;100.00
4972;BME280;2501;51.214;6.768;2024-03-23T07:10:55;100741.94;;;6.16;100.00
4972;BME280;2501;51.214;6.768;2024-03-23T07:13:23;100740.00;;;6.07;100.00
4972;BME280;2501;51.214;6.768;2024-03-23T07:15:52;100727.44;;;6.27;100.00
4972;BME280;2501;51.214;6.768;2024-03-23T07:18:18;100732.06;;;6.39;100.00
4972;BME280;2501;51.214;6.768;2024-03-23T07:20:52;100730.53;;;6.48;100.00
4972;BME280;2501;51.214;6.768;2024-03-23T07:23:18;100730.00;;;6.64;100.00
4972;BME280;2501;51.214;6.768;2024-03-23T07:25:43;100716.31;;;6.73;100.00
4972;BME280;2501;51.214;6.768;2024-03-23T07:28:09;100723.81;;;6.58;100.00
4972;BME280;2501;51.214;6.768;2024-03-23T07:30:38;100719.50;;;6.61;100.00
4972;BME280;2501;51.214;6.768;2024-03-23T07:33:05;100722.66;;;6.86;100.00
4972;BME280;2501;51.214;6.768;2024-03-23T07:35:31;100717.09;;;7.13;100.00
4972;BME280;2501;51.214;6.768;2024-03-23T07:37:57;100712.16;;;6.83;100.00
4972;BME280;2501;51.214;6.768;2024-03-23T07:40:22;100713.94;;;7.30;100.00
4972;BME280;2501;51.214;6.768;2024-03-23T07:42:48;100713.66;;;7.15;100.00
4972;BME280;2501;51.214;6.768;2024-03-23T07:45:14;100715.88;;;7.92;100.00
4972;BME280;2501;51.214;6.768;2024-03-23T07:47:42;100721.47;;;7.63;100.00
4972;BME280;2501;51.214;6.768;2024-03-23T07:50:09;100724.16;;;7.66;100.00
4972;BME280;2501;51.214;6.768;2024-03-23T07:52:35;100724.53;;;7.38;100.00
4972;BME280;2501;51.214;6.768;2024-03-23T07:55:00;100716.28;;;7.65;100.00
4972;BME280;2501;51.214;6.768;2024-03-23T07:57:26;100722.56;;;7.75;100.00
4972;BME280;2501;51.214;6.768;2024-03-23T07:59:52;100723.38;;;7.72;100.00
4972;BME280;2501;51.214;6.768;2024-03-23T08:02:18;100721.69;;;7.74;100.00
4972;BME280;2501;51.214;6.768;2024-03-23T08:04:46;100712.06;;;7.72;100.00
4972;BME280;2501;51.214;6.768;2024-03-23T08:07:12;100713.16;;;7.86;100.00
4972;BME280;2501;51.214;6.768;2024-03-23T08:09:38;100722.66;;;7.79;100.00
4972;BME280;2501;51.214;6.768;2024-03-23T08:12:04;100715.00;;;7.91;100.00
4972;BME280;2501;51.214;6.768;2024-03-23T08:14:30;100708.94;;;8.51;100.00
4972;BME280;2501;51.214;6.768;2024-03-23T08:16:56;100714.59;;;8.82;100.00
4972;BME280;2501;51.214;6.768;2024-03-23T08:19:22;100704.63;;;8.53;100.00
4972;BME280;2501;51.214;6.768;2024-03-23T08:21:50;100699.25;;;8.43;100.00
4972;BME280;2501;51.214;6.768;2024-03-23T08:24:16;100702.84;;;8.52;100.00
4972;BME280;2501;51.214;6.768;2024-03-23T08:26:42;100709.38;;;8.23;100.00
4972;BME280;2501;51.214;6.768;2024-03-23T08:29:08;100700.00;;;8.35;100.00
4972;BME280;2501;51.214;6.768;2024-03-23T08:31:34;100702.19;;;8.65;100.00
4972;BME280;2501;51.214;6.768;2024-03-23T08:34:00;100702.13;;;8.62;100.00
4972;BME280;2501;51.214;6.768;2024-03-23T08:36:25;100693.47;;;8.68;100.00
4972;BME280;2501;51.214;6.768;2024-03-23T08:38:54;100697.00;;;8.71;100.00
4972;BME280;2501;51.214;6.768;2024-03-23T08:41:20;100707.19;;;9.23;100.00
4972;BME280;2501;51.214;6.768;2024-03-23T08:43:45;100693.88;;;8.98;100.00
4972;BME280;2501;51.214;6.768;2024-03-23T08:46:12;100701.03;;;9.19;100.00
4972;BME280;2501;51.214;6.768;2024-03-23T08:48:40;100711.06;;;8.78;100.00
4972;BME280;2501;51.214;6.768;2024-03-23T08:51:07;100694.22;;;8.58;100.00
4972;BME280;2501;51.214;6.768;2024-03-23T08:53:34;100703.94;;;8.68;100.00
4972;BME280;2501;51.214;6.768;2024-03-23T08:56:03;100697.75;;;8.60;100.00
4972;BME280;2501;51.214;6.768;2024-03-23T08:58:30;100708.63;;;8.31;100.00
4972;BME280;2501;51.214;6.768;2024-03-23T09:01:04;100709.22;;;8.71;100.00
4972;BME280;2501;51.214;6.768;2024-03-23T09:03:30;100695.19;;;8.64;100.00
4972;BME280;2501;51.214;6.768;2024-03-23T09:05:56;100697.81;;;8.67;100.00
4972;BME280;2501;51.214;6.768;2024-03-23T09:08:22;100698.88;;;8.83;100.00
4972;BME280;2501;51.214;6.768;2024-03-23T09:10:48;100701.88;;;9.14;100.00
4972;BME280;2501;51.214;6.768;2024-03-23T09:13:16;100698.25;;;9.02;100.00
4972;BME280;2501;51.214;6.768;2024-03-23T09:15:46;100708.19;;;8.60;100.00
4972;BME280;2501;51.214;6.768;2024-03-23T09:18:12;100703.53;;;8.37;100.00
4972;BME280;2501;51.214;6.768;2024-03-23T09:20:38;100705.41;;;8.46;100.00
4972;BME280;2501;51.214;6.768;2024-03-23T09:23:04;100710.03;;;8.08;100.00
4972;BME280;2501;51.214;6.768;2024-03-23T09:25:30;100709.13;;;8.06;100.00
4972;BME280;2501;51.214;6.768;2024-03-23T09:27:55;100708.81;;;8.41;100.00
4972;BME280;2501;51.214;6.768;2024-03-23T09:30:24;100715.34;;;8.13;100.00
4972;BME280;2501;51.214;6.768;2024-03-23T09:32:50;100701.97;;;7.93;100.00
4972;BME280;2501;51.214;6.768;2024-03-23T09:35:15;100715.78;;;7.86;100.00
4972;BME280;2501;51.214;6.768;2024-03-23T09:37:41;100709.88;;;7.99;100.00
4972;BME280;2501;51.214;6.768;2024-03-23T09:40:09;100689.84;;;7.98;100.00
4972;BME280;2501;51.214;6.768;2024-03-23T09:42:35;100699.16;;;8.36;100.00
4972;BME280;2501;51.214;6.768;2024-03-23T09:45:01;100694.50;;;8.79;100.00
4972;BME280;2501;51.214;6.768;2024-03-23T09:47:30;100702.41;;;8.82;100.00
4972;BME280;2501;51.214;6.768;2024-03-23T09:50:00;100702.44;;;8.23;100.00
4972;BME280;2501;51.214;6.768;2024-03-23T09:52:26;100685.06;;;8.27;100.00
4972;BME280;2501;51.214;6.768;2024-03-23T09:54:51;100685.28;;;8.41;100.00
4972;BME280;2501;51.214;6.768;2024-03-23T09:57:17;100688.88;;;8.49;100.00
4972;BME280;2501;51.214;6.768;2024-03-23T09:59:43;100678.88;;;8.85;100.00
4972;BME280;2501;51.214;6.768;2024-03-23T10:02:09;100678.06;;;8.91;100.00
4972;BME280;2501;51.214;6.768;2024-03-23T10:04:40;100676.97;;;8.72;100.00
4972;BME280;2501;51.214;6.768;2024-03-23T10:07:12;100676.59;;;9.14;100.00
4972;BME280;2501;51.214;6.768;2024-03-23T10:09:38;100676.88;;;9.43;100.00
4972;BME280;2501;51.214;6.768;2024-03-23T10:12:09;100668.97;;;9.40;100.00
4972;BME280;2501;51.214;6.768;2024-03-23T10:14:35;100672.13;;;9.05;100.00
4972;BME280;2501;51.214;6.768;2024-03-23T10:17:15;100667.28;;;9.45;100.00
4972;BME280;2501;51.214;6.768;2024-03-23T10:19:46;100664.16;;;9.90;100.00
4972;BME280;2501;51.214;6.768;2024-03-23T10:22:14;100671.00;;;9.73;100.00
4972;BME280;2501;51.214;6.768;2024-03-23T10:24:40;100670.97;;;9.65;100.00
4972;BME280;2501;51.214;6.768;2024-03-23T10:27:06;100709.59;;;9.00;100.00
4972;BME280;2501;51.214;6.768;2024-03-23T10:29:32;100740.38;;;7.49;100.00
4972;BME280;2501;51.214;6.768;2024-03-23T10:32:08;100751.38;;;6.48;100.00
4972;BME280;2501;51.214;6.768;2024-03-23T10:34:35;100752.03;;;5.35;100.00
4972;BME280;2501;51.214;6.768;2024-03-23T10:37:04;100754.09;;;4.57;100.00
4972;BME280;2501;51.214;6.768;2024-03-23T10:39:35;100768.25;;;4.38;100.00
4972;BME280;2501;51.214;6.768;2024-03-23T10:42:02;100773.34;;;4.35;100.00
4972;BME280;2501;51.214;6.768;2024-03-23T10:44:28;100769.00;;;4.62;100.00
4972;BME280;2501;51.214;6.768;2024-03-23T10:46:54;100778.88;;;4.74;100.00
4972;BME280;2501;51.214;6.768;2024-03-23T10:49:20;100770.47;;;4.82;100.00
4972;BME280;2501;51.214;6.768;2024-03-23T10:51:46;100790.38;;;4.82;100.00
4972;BME280;2501;51.214;6.768;2024-03-23T10:54:14;100776.72;;;4.89;100.00
4972;BME280;2501;51.214;6.768;2024-03-23T10:56:40;100784.50;;;4.89;100.00
4972;BME280;2501;51.214;6.768;2024-03-23T10:59:07;100789.50;;;4.81;100.00
4972;BME280;2501;51.214;6.768;2024-03-23T11:01:34;100779.94;;;4.80;100.00
4972;BME280;2501;51.214;6.768;2024-03-23T11:03:59;100779.53;;;4.97;100.00
4972;BME280;2501;51.214;6.768;2024-03-23T11:06:34;100776.00;;;5.24;100.00
4972;BME280;2501;51.214;6.768;2024-03-23T11:09:01;100766.69;;;5.03;100.00
4972;BME280;2501;51.214;6.768;2024-03-23T11:11:29;100769.44;;;5.39;100.00
4972;BME280;2501;51.214;6.768;2024-03-23T11:13:56;100762.19;;;5.27;100.00
4972;BME280;2501;51.214;6.768;2024-03-23T11:16:23;100761.88;;;5.81;100.00
4972;BME280;2501;51.214;6.768;2024-03-23T11:18:49;100761.41;;;5.63;100.00
4972;BME280;2501;51.214;6.768;2024-03-23T11:24:14;100746.69;;;5.96;100.00
4972;BME280;2501;51.214;6.768;2024-03-23T11:26:43;100748.19;;;5.55;100.00
4972;BME280;2501;51.214;6.768;2024-03-23T11:29:09;100746.91;;;5.71;100.00
4972;BME280;2501;51.214;6.768;2024-03-23T11:31:37;100743.31;;;5.67;100.00
4972;BME280;2501;51.214;6.768;2024-03-23T11:34:04;100732.50;;;5.50;100.00
4972;BME280;2501;51.214;6.768;2024-03-23T11:36:30;100734.47;;;6.31;100.00
4972;BME280;2501;51.214;6.768;2024-03-23T11:38:56;100725.88;;;6.74;100.00
4972;BME280;2501;51.214;6.768;2024-03-23T11:41:22;100720.94;;;6.88;100.00
4972;BME280;2501;51.214;6.768;2024-03-23T11:43:50;100714.25;;;7.01;100.00
4972;BME280;2501;51.214;6.768;2024-03-23T11:46:22;100711.25;;;7.24;100.00
4972;BME280;2501;51.214;6.768;2024-03-23T11:48:50;100704.16;;;7.67;100.00
4972;BME280;2501;51.214;6.768;2024-03-23T11:51:17;100731.31;;;7.77;100.00
4972;BME280;2501;51.214;6.768;2024-03-23T11:53:43;100783.09;;;6.68;100.00
4972;BME280;2501;51.214;6.768;2024-03-23T11:56:08;100758.72;;;5.27;100.00
4972;BME280;2501;51.214;6.768;2024-03-23T11:58:35;100754.63;;;5.05;100.00
4972;BME280;2501;51.214;6.768;2024-03-23T12:01:04;100738.97;;;5.02;100.00
4972;BME280;2501;51.214;6.768;2024-03-23T12:03:30;100737.72;;;5.19;100.00
4972;BME280;2501;51.214;6.768;2024-03-23T12:05:58;100743.19;;;5.30;100.00
4972;BME280;2501;51.214;6.768;2024-03-23T12:08:28;100736.31;;;5.32;100.00
4972;BME280;2501;51.214;6.768;2024-03-23T12:11:06;100741.25;;;5.54;100.00
4972;BME280;2501;51.214;6.768;2024-03-23T12:13:32;100741.69;;;5.71;100.00
4972;BME280;2501;51.214;6.768;2024-03-23T12:16:12;100740.47;;;5.91;100.00
4972;BME280;2501;51.214;6.768;2024-03-23T12:18:39;100726.00;;;6.41;100.00
4972;BME280;2501;51.214;6.768;2024-03-23T12:21:06;100731.03;;;6.71;100.00
4972;BME280;2501;51.214;6.768;2024-03-23T12:23:32;100735.63;;;6.44;100.00
4972;BME280;2501;51.214;6.768;2024-03-23T12:26:01;100725.50;;;6.98;100.00
4972;BME280;2501;51.214;6.768;2024-03-23T12:28:27;100719.50;;;7.02;100.00
4972;BME280;2501;51.214;6.768;2024-03-23T12:30:54;100713.03;;;7.28;100.00
4972;BME280;2501;51.214;6.768;2024-03-23T12:33:22;100702.25;;;7.57;100.00
4972;BME280;2501;51.214;6.768;2024-03-23T12:35:48;100716.97;;;7.53;100.00
4972;BME280;2501;51.214;6.768;2024-03-23T12:38:14;100710.59;;;7.87;100.00
4972;BME280;2501;51.214;6.768;2024-03-23T12:40:42;100713.31;;;7.42;100.00
4972;BME280;2501;51.214;6.768;2024-03-23T12:43:07;100709.91;;;7.48;100.00
4972;BME280;2501;51.214;6.768;2024-03-23T12:45:34;100708.72;;;7.79;100.00
4972;BME280;2501;51.214;6.768;2024-03-23T12:48:00;100705.56;;;8.01;100.00
4972;BME280;2501;51.214;6.768;2024-03-23T12:50:28;100701.25;;;8.03;100.00
4972;BME280;2501;51.214;6.768;2024-03-23T12:52:54;100696.72;;;8.50;100.00
4972;BME280;2501;51.214;6.768;2024-03-23T12:55:20;100689.22;;;8.75;100.00
4972;BME280;2501;51.214;6.768;2024-03-23T12:57:46;100690.47;;;8.37;100.00
4972;BME280;2501;51.214;6.768;2024-03-23T13:00:13;100692.47;;;8.57;100.00
4972;BME280;2501;51.214;6.768;2024-03-23T13:02:39;100683.28;;;8.24;100.00
4972;BME280;2501;51.214;6.768;2024-03-23T13:05:06;100681.81;;;8.42;100.00
4972;BME280;2501;51.214;6.768;2024-03-23T13:07:36;100693.50;;;8.08;100.00
4972;BME280;2501;51.214;6.768;2024-03-23T13:10:01;100678.91;;;8.22;100.00
4972;BME280;2501;51.214;6.768;2024-03-23T13:12:28;100742.50;;;7.71;100.00
4972;BME280;2501;51.214;6.768;2024-03-23T13:14:53;100763.34;;;5.37;100.00
4972;BME280;2501;51.214;6.768;2024-03-23T13:17:19;100774.69;;;4.50;100.00
4972;BME280;2501;51.214;6.768;2024-03-23T13:19:45;100743.25;;;4.41;100.00
4972;BME280;2501;51.214;6.768;2024-03-23T13:22:11;100745.81;;;4.40;100.00
4972;BME280;2501;51.214;6.768;2024-03-23T13:24:39;100713.72;;;4.66;100.00
4972;BME280;2501;51.214;6.768;2024-03-23T13:27:05;100716.53;;;5.05;100.00
4972;BME280;2501;51.214;6.768;2024-03-23T13:29:32;100716.00;;;5.50;100.00
4972;BME280;2501;51.214;6.768;2024-03-23T13:31:57;100701.50;;;5.59;100.00
4972;BME280;2501;51.214;6.768;2024-03-23T13:34:23;100702.19;;;5.87;100.00
4972;BME280;2501;51.214;6.768;2024-03-23T13:36:49;100693.88;;;6.41;100.00
4972;BME280;2501;51.214;6.768;2024-03-23T13:39:15;100688.31;;;6.64;100.00
4972;BME280;2501;51.214;6.768;2024-03-23T13:41:44;100680.28;;;7.46;100.00
4972;BME280;2501;51.214;6.768;2024-03-23T13:44:11;100675.38;;;7.14;100.00
4972;BME280;2501;51.214;6.768;2024-03-23T13:46:37;100672.41;;;6.94;100.00
4972;BME280;2501;51.214;6.768;2024-03-23T13:49:06;100663.13;;;6.23;100.00
4972;BME280;2501;51.214;6.768;2024-03-23T13:51:32;100668.44;;;6.29;100.00
4972;BME280;2501;51.214;6.768;2024-03-23T13:53:58;100663.50;;;6.41;100.00
4972;BME280;2501;51.214;6.768;2024-03-23T13:56:25;100674.78;;;6.40;100.00
4972;BME280;2501;51.214;6.768;2024-03-23T13:58:54;100672.69;;;6.64;100.00
4972;BME280;2501;51.214;6.768;2024-03-23T14:01:20;100673.63;;;7.61;100.00
4972;BME280;2501;51.214;6.768;2024-03-23T14:03:45;100656.03;;;8.06;100.00